createdAt,value
2019-03-26T00:00:33.231Z,89.89
2019-03-26T00:01:33.149Z,89.79
2019-03-26T00:02:33.138Z,89.69
2019-03-26T00:03:33.134Z,89.69
2019-03-26T00:04:33.116Z,89.69
2019-03-26T00:05:33.106Z,90.20
2019-03-26T00:06:33.163Z,90.10
2019-03-26T00:07:33.084Z,90.00
2019-03-26T00:08:33.071Z,90.20
2019-03-26T00:09:33.065Z,90.20
2019-03-26T00:10:33.050Z,90.35
2019-03-26T00:11:33.039Z,89.83
2019-03-26T00:12:33.077Z,90.66
2019-03-26T00:13:33.017Z,90.45
2019-03-26T00:14:33.005Z,90.66
2019-03-26T00:15:33.011Z,90.97
2019-03-26T00:16:33.229Z,91.02
2019-03-26T00:17:32.968Z,90.39
2019-03-26T00:18:32.965Z,91.43
2019-03-26T00:19:32.946Z,90.91
2019-03-26T00:20:32.947Z,91.22
2019-03-26T00:21:32.938Z,91.22
2019-03-26T00:22:32.974Z,90.70
2019-03-26T00:23:32.903Z,91.16
2019-03-26T00:24:32.890Z,90.81
2019-03-26T00:25:32.877Z,91.22
2019-03-26T00:26:32.879Z,92.05
2019-03-26T00:27:32.856Z,90.87
2019-03-26T00:28:32.914Z,91.12
2019-03-26T00:29:32.834Z,90.81
2019-03-26T00:30:32.820Z,90.45
2019-03-26T00:31:32.821Z,91.08
2019-03-26T00:32:32.819Z,90.66
2019-03-26T00:33:36.523Z,90.56
2019-03-26T00:34:32.855Z,90.25
2019-03-26T00:35:32.766Z,90.35
2019-03-26T00:36:32.754Z,90.00
2019-03-26T00:37:32.747Z,89.52
2019-03-26T00:38:32.765Z,90.04
2019-03-26T00:39:32.730Z,90.04
2019-03-26T00:40:32.790Z,89.62
2019-03-26T00:41:32.696Z,89.94
2019-03-26T00:42:32.686Z,89.83
2019-03-26T00:43:32.679Z,90.25
2019-03-26T00:44:32.677Z,90.14
2019-03-26T00:45:32.669Z,90.25
2019-03-26T00:46:32.689Z,90.66
2019-03-26T00:47:32.638Z,90.20
2019-03-26T00:48:32.619Z,90.41
2019-03-26T00:49:32.604Z,90.00
2019-03-26T00:50:32.597Z,90.41
2019-03-26T00:51:32.629Z,90.41
2019-03-26T00:52:32.582Z,89.89
2019-03-26T00:53:32.561Z,90.31
2019-03-26T00:54:32.547Z,90.20
2019-03-26T00:55:32.546Z,90.10
2019-03-26T00:56:32.759Z,89.69
2019-03-26T00:57:32.514Z,89.69
2019-03-26T00:58:32.502Z,89.75
2019-03-26T00:59:32.514Z,89.75
2019-03-26T01:00:32.480Z,89.65
2019-03-26T01:01:32.468Z,89.75
2019-03-26T01:02:32.522Z,89.44
2019-03-26T01:03:32.446Z,89.65
2019-03-26T01:04:33.398Z,89.79
2019-03-26T01:05:32.424Z,89.65
2019-03-26T01:06:32.411Z,89.96
2019-03-26T01:07:32.401Z,89.69
2019-03-26T01:08:32.629Z,89.79
2019-03-26T01:09:32.378Z,89.75
2019-03-26T01:10:32.366Z,89.48
2019-03-26T01:11:32.356Z,89.44
2019-03-26T01:12:32.343Z,90.20
2019-03-26T01:13:32.332Z,89.89
2019-03-26T01:14:32.557Z,90.00
2019-03-26T01:15:32.312Z,90.10
2019-03-26T01:16:32.300Z,89.89
2019-03-26T01:17:32.286Z,89.89
2019-03-26T01:18:32.276Z,90.00
2019-03-26T01:19:32.264Z,89.69
2019-03-26T01:20:32.319Z,90.10
2019-03-26T01:21:32.244Z,90.31
2019-03-26T01:22:32.231Z,90.31
2019-03-26T01:23:32.221Z,89.79
2019-03-26T01:24:32.223Z,89.79
2019-03-26T01:25:32.227Z,89.58
2019-03-26T01:26:32.246Z,89.58
2019-03-26T01:27:32.177Z,89.06
2019-03-26T01:28:32.172Z,89.11
2019-03-26T01:29:32.152Z,89.83
2019-03-26T01:30:32.140Z,89.83
2019-03-26T01:31:32.128Z,90.10
2019-03-26T01:32:32.165Z,88.69
2019-03-26T01:33:32.107Z,88.69
2019-03-26T01:34:45.203Z,88.38
2019-03-26T01:35:33.085Z,88.38
2019-03-26T01:36:32.071Z,88.59
2019-03-26T01:37:32.115Z,88.02
2019-03-26T01:38:32.061Z,86.61
2019-03-26T01:39:32.037Z,87.13
2019-03-26T01:40:32.023Z,86.93
2019-03-26T01:41:32.017Z,86.36
2019-03-26T01:42:32.048Z,86.05
2019-03-26T01:43:31.991Z,86.05
2019-03-26T01:44:31.980Z,85.43
2019-03-26T01:45:31.978Z,86.41
2019-03-26T01:46:31.957Z,86.41
2019-03-26T01:47:31.993Z,86.82
2019-03-26T01:48:31.933Z,87.03
2019-03-26T01:49:31.920Z,86.93
2019-03-26T01:50:31.909Z,87.24
2019-03-26T01:51:31.898Z,88.31
2019-03-26T01:52:31.955Z,88.21
2019-03-26T01:53:31.875Z,88.42
2019-03-26T01:54:31.864Z,88.42
2019-03-26T01:55:31.853Z,88.67
2019-03-26T01:56:31.840Z,88.56
2019-03-26T01:57:31.831Z,89.02
2019-03-26T01:58:31.867Z,88.96
2019-03-26T01:59:31.806Z,90.62
2019-03-26T02:00:31.862Z,89.94
2019-03-26T02:01:31.794Z,90.62
2019-03-26T02:02:31.822Z,90.77
2019-03-26T02:03:31.764Z,90.77
2019-03-26T02:04:31.749Z,90.87
2019-03-26T02:05:31.743Z,90.45
2019-03-26T02:06:31.791Z,90.45
2019-03-26T02:07:31.715Z,90.56
2019-03-26T02:08:31.705Z,90.50
2019-03-26T02:09:31.705Z,90.29
2019-03-26T02:10:31.688Z,90.70
2019-03-26T02:11:31.678Z,90.39
2019-03-26T02:12:31.713Z,90.19
2019-03-26T02:13:31.647Z,90.19
2019-03-26T02:14:31.649Z,89.98
2019-03-26T02:15:31.635Z,90.08
2019-03-26T02:16:31.614Z,89.20
2019-03-26T02:17:31.650Z,89.04
2019-03-26T02:18:31.593Z,89.45
2019-03-26T02:19:31.582Z,89.66
2019-03-26T02:20:31.581Z,89.66
2019-03-26T02:21:31.566Z,90.08
2019-03-26T02:22:31.600Z,90.19
2019-03-26T02:23:31.567Z,90.19
2019-03-26T02:24:31.524Z,90.19
2019-03-26T02:25:31.511Z,90.08
2019-03-26T02:26:31.500Z,90.39
2019-03-26T02:27:31.490Z,89.56
2019-03-26T02:28:31.542Z,90.22
2019-03-26T02:29:31.469Z,89.39
2019-03-26T02:30:31.458Z,89.18
2019-03-26T02:31:31.449Z,89.08
2019-03-26T02:32:31.438Z,89.08
2019-03-26T02:33:31.438Z,88.66
2019-03-26T02:34:31.517Z,89.12
2019-03-26T02:35:31.408Z,90.16
2019-03-26T02:36:31.414Z,90.16
2019-03-26T02:37:31.382Z,89.78
2019-03-26T02:38:31.371Z,90.72
2019-03-26T02:39:31.363Z,90.83
2019-03-26T02:40:31.403Z,91.04
2019-03-26T02:41:31.334Z,91.14
2019-03-26T02:42:31.335Z,90.52
2019-03-26T02:43:31.363Z,90.72
2019-03-26T02:44:31.299Z,90.20
2019-03-26T02:45:31.287Z,90.62
2019-03-26T02:46:31.277Z,90.83
2019-03-26T02:47:31.272Z,91.04
2019-03-26T02:48:31.313Z,91.04
2019-03-26T02:49:31.241Z,91.14
2019-03-26T02:50:31.230Z,90.93
2019-03-26T02:51:31.220Z,91.25
2019-03-26T02:52:31.362Z,91.35
2019-03-26T02:53:31.251Z,91.62
2019-03-26T02:54:31.184Z,91.66
2019-03-26T02:55:31.172Z,91.72
2019-03-26T02:56:31.162Z,91.62
2019-03-26T02:57:31.150Z,91.41
2019-03-26T02:58:31.209Z,91.31
2019-03-26T02:59:31.125Z,91.25
2019-03-26T03:00:31.115Z,90.93
2019-03-26T03:01:31.102Z,90.79
2019-03-26T03:02:31.093Z,91.62
2019-03-26T03:03:31.088Z,90.37
2019-03-26T03:04:31.155Z,90.79
2019-03-26T03:05:35.705Z,91.00
2019-03-26T03:06:32.045Z,91.20
2019-03-26T03:07:31.038Z,90.93
2019-03-26T03:08:31.035Z,91.62
2019-03-26T03:09:31.023Z,90.62
2019-03-26T03:10:31.066Z,91.14
2019-03-26T03:11:30.989Z,91.72
2019-03-26T03:12:30.978Z,91.35
2019-03-26T03:13:30.973Z,91.77
2019-03-26T03:14:30.956Z,91.66
2019-03-26T03:15:30.955Z,91.56
2019-03-26T03:16:31.147Z,91.04
2019-03-26T03:17:30.919Z,91.81
2019-03-26T03:18:30.910Z,91.60
2019-03-26T03:19:30.899Z,91.91
2019-03-26T03:20:30.886Z,92.02
2019-03-26T03:21:30.882Z,92.85
2019-03-26T03:22:30.933Z,91.91
2019-03-26T03:23:30.855Z,91.81
2019-03-26T03:24:30.839Z,92.75
2019-03-26T03:25:30.828Z,92.44
2019-03-26T03:26:30.818Z,92.22
2019-03-26T03:27:30.824Z,92.22
2019-03-26T03:28:31.048Z,92.65
2019-03-26T03:29:30.783Z,92.22
2019-03-26T03:30:30.797Z,92.33
2019-03-26T03:31:30.762Z,92.69
2019-03-26T03:32:30.753Z,92.58
2019-03-26T03:33:30.764Z,91.85
2019-03-26T03:34:30.780Z,91.58
2019-03-26T03:35:30.718Z,92.14
2019-03-26T03:36:30.772Z,92.66
2019-03-26T03:37:30.699Z,93.08
2019-03-26T03:38:30.683Z,93.92
2019-03-26T03:39:30.686Z,93.61
2019-03-26T03:40:30.663Z,93.92
2019-03-26T03:41:30.652Z,94.65
2019-03-26T03:42:30.718Z,94.02
2019-03-26T03:43:30.629Z,94.55
2019-03-26T03:44:30.633Z,94.65
2019-03-26T03:45:30.608Z,94.23
2019-03-26T03:46:30.614Z,94.76
2019-03-26T03:47:30.583Z,94.86
2019-03-26T03:48:30.639Z,94.17
2019-03-26T03:49:30.577Z,94.34
2019-03-26T03:50:30.599Z,94.27
2019-03-26T03:51:30.535Z,94.27
2019-03-26T03:52:30.532Z,94.07
2019-03-26T03:53:30.515Z,94.27
2019-03-26T03:54:30.573Z,94.59
2019-03-26T03:55:30.518Z,95.11
2019-03-26T03:56:30.491Z,94.90
2019-03-26T03:57:30.466Z,94.74
2019-03-26T03:58:30.458Z,94.42
2019-03-26T03:59:30.445Z,94.32
2019-03-26T04:00:30.508Z,94.36
2019-03-26T04:01:30.426Z,94.68
2019-03-26T04:02:30.411Z,95.25
2019-03-26T04:03:30.400Z,95.25
2019-03-26T04:04:30.391Z,94.62
2019-03-26T04:05:30.378Z,95.39
2019-03-26T04:06:30.438Z,94.97
2019-03-26T04:07:30.356Z,96.12
2019-03-26T04:08:30.348Z,95.92
2019-03-26T04:09:30.344Z,96.27
2019-03-26T04:10:30.320Z,96.37
2019-03-26T04:11:30.312Z,95.86
2019-03-26T04:12:30.540Z,96.37
2019-03-26T04:13:30.288Z,97.22
2019-03-26T04:14:30.275Z,97.00
2019-03-26T04:15:34.491Z,96.80
2019-03-26T04:16:30.253Z,97.32
2019-03-26T04:17:30.241Z,97.32
2019-03-26T04:18:30.290Z,96.90
2019-03-26T04:19:30.272Z,97.16
2019-03-26T04:20:30.227Z,97.32
2019-03-26T04:21:30.200Z,97.74
2019-03-26T04:22:30.398Z,98.28
2019-03-26T04:23:30.176Z,98.13
2019-03-26T04:24:30.161Z,98.44
2019-03-26T04:25:30.162Z,97.25
2019-03-26T04:26:30.139Z,97.61
2019-03-26T04:27:30.146Z,98.08
2019-03-26T04:28:30.193Z,98.19
2019-03-26T04:29:30.117Z,97.72
2019-03-26T04:30:30.099Z,97.62
2019-03-26T04:31:30.084Z,97.62
2019-03-26T04:32:30.075Z,96.89
2019-03-26T04:33:30.072Z,97.00
2019-03-26T04:34:30.127Z,96.68
2019-03-26T04:35:30.038Z,96.26
2019-03-26T04:36:30.027Z,95.90
2019-03-26T04:37:30.027Z,96.26
2019-03-26T04:38:30.005Z,95.84
2019-03-26T04:39:29.993Z,95.95
2019-03-26T04:40:30.048Z,95.43
2019-03-26T04:41:29.996Z,95.74
2019-03-26T04:42:29.963Z,95.95
2019-03-26T04:43:29.947Z,95.74
2019-03-26T04:44:29.937Z,96.05
2019-03-26T04:45:29.947Z,96.05
2019-03-26T04:46:29.964Z,95.70
2019-03-26T04:47:29.957Z,95.74
2019-03-26T04:48:29.889Z,95.74
2019-03-26T04:49:29.878Z,95.90
2019-03-26T04:50:29.865Z,96.11
2019-03-26T04:51:29.862Z,95.86
2019-03-26T04:52:29.913Z,94.92
2019-03-26T04:53:29.833Z,94.61
2019-03-26T04:54:29.865Z,94.65
2019-03-26T04:55:29.812Z,94.61
2019-03-26T04:56:29.799Z,94.76
2019-03-26T04:57:29.803Z,94.76
2019-03-26T04:58:29.845Z,95.07
2019-03-26T04:59:29.767Z,95.07
2019-03-26T05:00:29.754Z,94.76
2019-03-26T05:01:29.743Z,95.28
2019-03-26T05:02:29.729Z,94.44
2019-03-26T05:03:29.724Z,94.65
2019-03-26T05:04:29.776Z,94.13
2019-03-26T05:05:29.717Z,94.23
2019-03-26T05:06:37.905Z,94.76
2019-03-26T05:07:30.673Z,94.34
2019-03-26T05:08:29.664Z,94.23
2019-03-26T05:09:29.680Z,94.34
2019-03-26T05:10:29.694Z,94.02
2019-03-26T05:11:29.629Z,93.61
2019-03-26T05:12:29.616Z,94.34
2019-03-26T05:13:29.606Z,94.13
2019-03-26T05:14:29.594Z,94.23
2019-03-26T05:15:29.797Z,93.71
2019-03-26T05:16:29.570Z,94.23
2019-03-26T05:17:29.559Z,94.02
2019-03-26T05:18:29.591Z,93.98
2019-03-26T05:19:29.537Z,93.57
2019-03-26T05:20:29.525Z,93.31
2019-03-26T05:21:29.568Z,93.10
2019-03-26T05:22:29.504Z,93.10
2019-03-26T05:23:29.501Z,92.12
2019-03-26T05:24:29.479Z,92.22
2019-03-26T05:25:29.472Z,92.12
2019-03-26T05:26:29.533Z,91.81
2019-03-26T05:27:29.445Z,91.39
2019-03-26T05:28:29.438Z,91.97
2019-03-26T05:29:29.442Z,91.72
2019-03-26T05:30:29.413Z,91.10
2019-03-26T05:31:29.400Z,90.89
2019-03-26T05:32:29.443Z,90.33
2019-03-26T05:33:29.446Z,90.12
2019-03-26T05:34:29.376Z,90.01
2019-03-26T05:35:29.361Z,90.33
2019-03-26T05:36:29.402Z,90.12
2019-03-26T05:37:29.337Z,90.22
2019-03-26T05:38:29.326Z,90.44
2019-03-26T05:39:29.409Z,89.50
2019-03-26T05:40:29.300Z,89.18
2019-03-26T05:41:29.292Z,89.50
2019-03-26T05:42:29.286Z,88.93
2019-03-26T05:43:29.267Z,88.83
2019-03-26T05:44:29.257Z,88.62
2019-03-26T05:45:29.463Z,88.37
2019-03-26T05:46:29.238Z,88.48
2019-03-26T05:47:29.228Z,88.62
2019-03-26T05:48:29.214Z,88.52
2019-03-26T05:49:29.208Z,89.14
2019-03-26T05:50:29.187Z,88.83
2019-03-26T05:51:29.245Z,89.87
2019-03-26T05:52:29.176Z,89.56
2019-03-26T05:53:29.155Z,89.76
2019-03-26T05:54:29.145Z,90.08
2019-03-26T05:55:29.130Z,89.52
2019-03-26T05:56:30.577Z,90.50
2019-03-26T05:57:29.188Z,90.19
2019-03-26T05:58:29.119Z,90.50
2019-03-26T05:59:29.093Z,90.60
2019-03-26T06:00:29.076Z,90.56
2019-03-26T06:01:29.062Z,90.87
2019-03-26T06:02:29.051Z,90.91
2019-03-26T06:03:29.113Z,91.64
2019-03-26T06:04:29.039Z,91.50
2019-03-26T06:05:29.020Z,91.18
2019-03-26T06:06:29.014Z,91.50
2019-03-26T06:07:31.309Z,90.56
2019-03-26T06:08:28.985Z,90.83
2019-03-26T06:09:29.044Z,90.62
2019-03-26T06:10:28.962Z,90.41
2019-03-26T06:11:28.964Z,90.52
2019-03-26T06:12:28.947Z,90.10
2019-03-26T06:13:28.928Z,89.33
2019-03-26T06:14:28.913Z,89.02
2019-03-26T06:15:28.970Z,89.33
2019-03-26T06:16:38.289Z,89.02
2019-03-26T06:17:29.880Z,88.67
2019-03-26T06:18:28.867Z,88.67
2019-03-26T06:19:28.869Z,88.31
2019-03-26T06:20:28.843Z,88.73
2019-03-26T06:21:29.077Z,88.07
2019-03-26T06:22:28.876Z,87.24
2019-03-26T06:23:28.815Z,86.51
2019-03-26T06:24:28.802Z,86.78
2019-03-26T06:25:28.801Z,85.71
2019-03-26T06:26:28.778Z,85.81
2019-03-26T06:27:28.982Z,85.60
2019-03-26T06:28:28.759Z,86.22
2019-03-26T06:29:28.744Z,85.97
2019-03-26T06:30:28.749Z,85.97
2019-03-26T06:31:28.723Z,85.21
2019-03-26T06:32:28.709Z,84.83
2019-03-26T06:33:28.794Z,84.83
2019-03-26T06:34:28.689Z,84.00
2019-03-26T06:35:28.679Z,84.42
2019-03-26T06:36:28.666Z,84.52
2019-03-26T06:37:28.655Z,84.48
2019-03-26T06:38:28.641Z,84.38
2019-03-26T06:39:28.713Z,83.97
2019-03-26T06:40:28.616Z,83.86
2019-03-26T06:41:28.611Z,83.76
2019-03-26T06:42:28.594Z,83.86
2019-03-26T06:43:28.585Z,83.86
2019-03-26T06:44:28.574Z,83.83
2019-03-26T06:45:28.612Z,83.83
2019-03-26T06:46:28.548Z,83.00
2019-03-26T06:47:28.616Z,82.68
2019-03-26T06:48:28.543Z,83.41
2019-03-26T06:49:28.531Z,83.06
2019-03-26T06:50:28.504Z,82.95
2019-03-26T06:51:28.491Z,83.26
2019-03-26T06:52:28.480Z,83.16
2019-03-26T06:53:28.546Z,83.89
2019-03-26T06:54:28.466Z,83.26
2019-03-26T06:55:28.487Z,83.16
2019-03-26T06:56:28.442Z,83.06
2019-03-26T06:57:35.618Z,82.95
2019-03-26T06:58:29.521Z,83.16
2019-03-26T06:59:28.402Z,83.06
2019-03-26T07:00:28.394Z,82.95
2019-03-26T07:01:28.381Z,83.16
2019-03-26T07:02:28.369Z,82.95
2019-03-26T07:03:28.357Z,82.95
2019-03-26T07:04:28.416Z,83.02
2019-03-26T07:05:28.335Z,82.50
2019-03-26T07:06:28.325Z,82.60
2019-03-26T07:07:31.701Z,82.81
2019-03-26T07:08:28.305Z,82.29
2019-03-26T07:09:28.361Z,81.95
2019-03-26T07:10:28.491Z,81.84
2019-03-26T07:11:28.264Z,82.26
2019-03-26T07:12:28.255Z,81.43
2019-03-26T07:13:28.242Z,80.57
2019-03-26T07:14:28.229Z,81.39
2019-03-26T07:15:28.218Z,80.67
2019-03-26T07:16:28.283Z,80.98
2019-03-26T07:17:29.300Z,81.09
2019-03-26T07:18:28.200Z,81.09
2019-03-26T07:19:28.173Z,78.39
2019-03-26T07:20:28.166Z,79.67
2019-03-26T07:21:28.149Z,78.64
2019-03-26T07:22:28.214Z,78.43
2019-03-26T07:23:28.130Z,77.50
2019-03-26T07:24:28.172Z,78.12
2019-03-26T07:25:28.121Z,78.85
2019-03-26T07:26:28.095Z,76.46
2019-03-26T07:27:28.079Z,78.22
2019-03-26T07:28:28.323Z,79.05
2019-03-26T07:29:28.062Z,78.33
2019-03-26T07:30:28.045Z,77.50
2019-03-26T07:31:28.035Z,77.50
2019-03-26T07:32:28.020Z,77.60
2019-03-26T07:33:28.012Z,77.60
2019-03-26T07:34:28.066Z,76.98
2019-03-26T07:35:27.993Z,76.98
2019-03-26T07:36:27.976Z,76.84
2019-03-26T07:37:27.983Z,76.95
2019-03-26T07:38:27.951Z,74.15
2019-03-26T07:39:27.944Z,73.81
2019-03-26T07:40:28.000Z,74.02
2019-03-26T07:41:27.917Z,71.95
2019-03-26T07:42:28.148Z,71.84
2019-03-26T07:43:27.898Z,72.81
2019-03-26T07:44:27.882Z,72.60
2019-03-26T07:45:27.870Z,72.29
2019-03-26T07:46:27.871Z,72.39
2019-03-26T07:47:27.854Z,73.12
2019-03-26T07:48:28.057Z,72.50
2019-03-26T07:49:27.824Z,73.22
2019-03-26T07:50:27.814Z,73.12
2019-03-26T07:51:27.807Z,72.64
2019-03-26T07:52:27.795Z,71.39
2019-03-26T07:53:27.781Z,72.02
2019-03-26T07:54:27.820Z,72.12
2019-03-26T07:55:27.984Z,72.53
2019-03-26T07:56:27.748Z,72.67
2019-03-26T07:57:27.733Z,71.60
2019-03-26T07:58:27.725Z,71.39
2019-03-26T07:59:27.713Z,70.36
2019-03-26T08:00:27.700Z,70.15
2019-03-26T08:01:27.772Z,70.57
2019-03-26T08:02:27.678Z,70.47
2019-03-26T08:03:27.673Z,69.74
2019-03-26T08:04:27.657Z,69.64
2019-03-26T08:05:29.910Z,69.12
2019-03-26T08:06:27.643Z,69.95
2019-03-26T08:07:27.689Z,69.01
2019-03-26T08:08:27.609Z,70.01
2019-03-26T08:09:27.764Z,69.81
2019-03-26T08:10:27.587Z,69.09
2019-03-26T08:11:27.576Z,68.46
2019-03-26T08:12:27.651Z,68.57
2019-03-26T08:13:27.663Z,68.85
2019-03-26T08:14:27.553Z,66.39
2019-03-26T08:15:27.537Z,67.19
2019-03-26T08:16:27.543Z,66.16
2019-03-26T08:17:27.539Z,66.06
2019-03-26T08:18:27.495Z,65.72
2019-03-26T08:19:27.552Z,65.82
2019-03-26T08:20:27.478Z,65.72
2019-03-26T08:21:27.474Z,66.30
2019-03-26T08:22:27.453Z,64.73
2019-03-26T08:23:27.439Z,63.07
2019-03-26T08:24:27.427Z,63.46
2019-03-26T08:25:27.641Z,64.39
2019-03-26T08:26:27.407Z,63.25
2019-03-26T08:27:27.393Z,62.12
2019-03-26T08:28:27.383Z,61.29
2019-03-26T08:29:27.374Z,60.77
2019-03-26T08:30:27.374Z,59.23
2019-03-26T08:31:27.420Z,57.32
2019-03-26T08:32:27.342Z,57.83
2019-03-26T08:33:27.330Z,58.97
2019-03-26T08:34:27.313Z,58.01
2019-03-26T08:35:27.307Z,57.29
2019-03-26T08:36:27.292Z,56.65
2019-03-26T08:37:27.350Z,56.54
2019-03-26T08:38:27.271Z,58.42
2019-03-26T08:39:27.256Z,57.50
2019-03-26T08:40:27.246Z,58.01
2019-03-26T08:41:27.237Z,56.88
2019-03-26T08:42:27.222Z,57.60
2019-03-26T08:43:27.280Z,57.21
2019-03-26T08:44:27.201Z,57.32
2019-03-26T08:45:27.189Z,57.50
2019-03-26T08:46:27.180Z,58.32
2019-03-26T08:47:27.169Z,58.81
2019-03-26T08:48:27.154Z,58.09
2019-03-26T08:49:30.554Z,58.63
2019-03-26T08:50:27.135Z,58.55
2019-03-26T08:51:27.123Z,57.55
2019-03-26T08:52:27.110Z,57.78
2019-03-26T08:53:27.098Z,57.86
2019-03-26T08:54:27.087Z,57.89
2019-03-26T08:55:27.134Z,57.17
2019-03-26T08:56:27.063Z,57.99
2019-03-26T08:57:27.052Z,59.12
2019-03-26T08:58:27.094Z,57.37
2019-03-26T08:59:27.026Z,56.73
2019-03-26T09:00:27.015Z,56.31
2019-03-26T09:01:27.074Z,56.52
2019-03-26T09:02:26.993Z,56.80
2019-03-26T09:03:26.978Z,54.94
2019-03-26T09:04:27.225Z,55.15
2019-03-26T09:05:26.955Z,54.94
2019-03-26T09:06:26.944Z,54.64
2019-03-26T09:07:27.011Z,55.87
2019-03-26T09:08:26.923Z,55.77
2019-03-26T09:09:26.911Z,56.08
2019-03-26T09:10:26.898Z,56.21
2019-03-26T09:11:26.886Z,56.73
2019-03-26T09:12:26.878Z,56.73
2019-03-26T09:13:26.955Z,56.83
2019-03-26T09:14:26.851Z,56.31
2019-03-26T09:15:26.844Z,56.73
2019-03-26T09:16:26.830Z,56.93
2019-03-26T09:17:26.817Z,56.83
2019-03-26T09:18:26.804Z,57.65
2019-03-26T09:19:26.861Z,57.65
2019-03-26T09:20:26.784Z,56.70
2019-03-26T09:21:26.835Z,56.10
2019-03-26T09:22:26.760Z,56.62
2019-03-26T09:23:26.748Z,56.70
2019-03-26T09:24:26.737Z,56.18
2019-03-26T09:25:26.968Z,54.92
2019-03-26T09:26:26.717Z,54.84
2019-03-26T09:27:26.703Z,54.69
2019-03-26T09:28:26.689Z,55.10
2019-03-26T09:29:26.684Z,53.74
2019-03-26T09:30:26.666Z,53.81
2019-03-26T09:31:26.722Z,50.05
2019-03-26T09:32:26.644Z,46.66
2019-03-26T09:33:26.631Z,45.32
2019-03-26T09:34:26.625Z,42.18
2019-03-26T09:35:26.610Z,40.88
2019-03-26T09:36:26.608Z,38.87
2019-03-26T09:37:26.640Z,42.35
2019-03-26T09:38:38.474Z,41.16
2019-03-26T09:39:27.637Z,42.16
2019-03-26T09:40:26.552Z,44.08
2019-03-26T09:41:26.540Z,47.13
2019-03-26T09:42:26.528Z,47.86
2019-03-26T09:43:26.529Z,44.16
2019-03-26T09:44:26.515Z,42.77
2019-03-26T09:45:26.566Z,43.84
2019-03-26T09:46:26.488Z,43.79
2019-03-26T09:47:26.473Z,42.63
2019-03-26T09:48:26.460Z,42.04
2019-03-26T09:49:26.504Z,44.96
2019-03-26T09:50:26.442Z,47.09
2019-03-26T09:51:26.425Z,48.41
2019-03-26T09:52:26.484Z,50.10
2019-03-26T09:53:26.403Z,50.74
2019-03-26T09:54:26.401Z,51.79
2019-03-26T09:55:26.381Z,52.76
2019-03-26T09:56:29.364Z,53.81
2019-03-26T09:57:27.426Z,54.02
2019-03-26T09:58:26.347Z,54.61
2019-03-26T09:59:26.332Z,54.66
2019-03-26T10:00:26.343Z,53.38
2019-03-26T10:01:26.311Z,52.12
2019-03-26T10:02:26.310Z,53.49
2019-03-26T10:03:26.357Z,52.51
2019-03-26T10:04:26.518Z,51.51
2019-03-26T10:05:26.265Z,52.15
2019-03-26T10:06:26.253Z,52.36
2019-03-26T10:07:26.243Z,53.08
2019-03-26T10:08:26.230Z,50.94
2019-03-26T10:09:26.219Z,52.48
2019-03-26T10:10:26.280Z,53.41
2019-03-26T10:11:26.196Z,53.94
2019-03-26T10:12:26.195Z,53.35
2019-03-26T10:13:26.175Z,53.77
2019-03-26T10:14:26.172Z,54.41
2019-03-26T10:15:26.151Z,53.89
2019-03-26T10:16:26.209Z,55.05
2019-03-26T10:17:26.128Z,55.62
2019-03-26T10:18:26.115Z,54.74
2019-03-26T10:19:26.134Z,52.48
2019-03-26T10:20:26.097Z,53.33
2019-03-26T10:21:26.080Z,54.66
2019-03-26T10:22:26.146Z,54.85
2019-03-26T10:23:26.059Z,54.82
2019-03-26T10:24:26.089Z,54.02
2019-03-26T10:25:26.036Z,55.13
2019-03-26T10:26:26.024Z,54.97
2019-03-26T10:27:26.013Z,55.10
2019-03-26T10:28:26.075Z,54.64
2019-03-26T10:29:30.422Z,55.66
2019-03-26T10:30:26.977Z,54.85
2019-03-26T10:31:25.966Z,54.05
2019-03-26T10:32:25.957Z,54.94
2019-03-26T10:33:25.945Z,56.18
2019-03-26T10:34:26.007Z,55.15
2019-03-26T10:35:25.920Z,54.87
2019-03-26T10:36:25.942Z,54.46
2019-03-26T10:37:25.897Z,53.84
2019-03-26T10:38:25.891Z,53.30
2019-03-26T10:39:25.876Z,53.92
2019-03-26T10:40:25.954Z,53.48
2019-03-26T10:41:25.852Z,51.61
2019-03-26T10:42:25.840Z,52.40
2019-03-26T10:43:25.828Z,50.82
2019-03-26T10:44:25.822Z,50.48
2019-03-26T10:45:25.806Z,49.56
2019-03-26T10:46:25.863Z,49.79
2019-03-26T10:47:25.787Z,51.74
2019-03-26T10:48:25.773Z,51.25
2019-03-26T10:49:25.762Z,50.84
2019-03-26T10:50:25.750Z,51.87
2019-03-26T10:51:25.739Z,50.02
2019-03-26T10:52:25.779Z,50.10
2019-03-26T10:53:25.716Z,50.61
2019-03-26T10:54:25.725Z,49.99
2019-03-26T10:55:25.795Z,49.48
2019-03-26T10:56:25.682Z,50.63
2019-03-26T10:57:25.676Z,50.59
2019-03-26T10:58:25.667Z,49.54
2019-03-26T10:59:25.729Z,46.91
2019-03-26T11:00:25.643Z,46.93
2019-03-26T11:01:25.870Z,47.24
2019-03-26T11:02:25.612Z,48.55
2019-03-26T11:03:25.619Z,46.07
2019-03-26T11:04:25.595Z,46.52
2019-03-26T11:05:25.577Z,48.57
2019-03-26T11:06:25.566Z,48.31
2019-03-26T11:07:25.629Z,49.97
2019-03-26T11:08:25.546Z,50.48
2019-03-26T11:09:27.212Z,48.80
2019-03-26T11:10:25.524Z,45.82
2019-03-26T11:11:25.518Z,46.62
2019-03-26T11:12:25.503Z,47.91
2019-03-26T11:13:25.561Z,46.45
2019-03-26T11:14:25.475Z,48.59
2019-03-26T11:15:25.473Z,49.58
2019-03-26T11:16:25.450Z,50.12
2019-03-26T11:17:25.438Z,51.66
2019-03-26T11:18:25.432Z,51.56
2019-03-26T11:19:25.487Z,51.89
2019-03-26T11:20:25.405Z,52.22
2019-03-26T11:21:25.395Z,52.43
2019-03-26T11:22:25.381Z,53.79
2019-03-26T11:23:25.373Z,53.92
2019-03-26T11:24:25.371Z,53.92
2019-03-26T11:25:25.417Z,54.64
2019-03-26T11:26:25.336Z,54.64
2019-03-26T11:27:25.326Z,54.64
2019-03-26T11:28:25.313Z,54.94
2019-03-26T11:29:25.303Z,55.13
2019-03-26T11:30:25.304Z,54.07
2019-03-26T11:31:25.348Z,53.05
2019-03-26T11:32:25.268Z,53.56
2019-03-26T11:33:25.257Z,54.49
2019-03-26T11:34:25.246Z,54.02
2019-03-26T11:35:25.233Z,52.76
2019-03-26T11:36:25.243Z,52.33
2019-03-26T11:37:25.280Z,53.08
2019-03-26T11:38:25.202Z,52.00
2019-03-26T11:39:32.638Z,51.46
2019-03-26T11:40:26.174Z,50.97
2019-03-26T11:41:25.166Z,50.99
2019-03-26T11:42:25.153Z,52.02
2019-03-26T11:43:25.200Z,50.56
2019-03-26T11:44:25.131Z,50.36
2019-03-26T11:45:25.118Z,50.67
2019-03-26T11:46:25.178Z,48.47
2019-03-26T11:47:25.098Z,48.67
2019-03-26T11:48:25.096Z,48.49
2019-03-26T11:49:25.076Z,46.81
2019-03-26T11:50:25.066Z,47.56
2019-03-26T11:51:25.050Z,48.61
2019-03-26T11:52:25.130Z,50.48
2019-03-26T11:53:25.040Z,50.48
2019-03-26T11:54:25.015Z,48.22
2019-03-26T11:55:25.005Z,49.07
2019-03-26T11:56:24.994Z,49.82
2019-03-26T11:57:24.981Z,49.10
2019-03-26T11:58:30.413Z,48.64
2019-03-26T11:59:25.958Z,50.48
2019-03-26T12:00:24.953Z,50.71
2019-03-26T12:01:24.934Z,49.69
2019-03-26T12:02:25.042Z,51.25
2019-03-26T12:03:24.914Z,50.40
2019-03-26T12:04:24.960Z,49.97
2019-03-26T12:05:24.894Z,48.22
2019-03-26T12:06:24.876Z,45.72
2019-03-26T12:07:24.865Z,43.02
2019-03-26T12:08:24.909Z,41.86
2019-03-26T12:09:24.842Z,44.10
2019-03-26T12:10:24.836Z,46.35
2019-03-26T12:11:24.821Z,47.34
2019-03-26T12:12:24.809Z,49.74
2019-03-26T12:13:25.039Z,49.58
2019-03-26T12:14:24.816Z,50.63
2019-03-26T12:15:24.777Z,52.07
2019-03-26T12:16:24.761Z,52.69
2019-03-26T12:17:24.754Z,53.08
2019-03-26T12:18:24.741Z,50.09
2019-03-26T12:19:24.979Z,49.24
2019-03-26T12:20:24.719Z,44.78
2019-03-26T12:21:24.713Z,42.27
2019-03-26T12:22:24.692Z,44.49
2019-03-26T12:23:24.682Z,46.21
2019-03-26T12:24:24.669Z,46.64
2019-03-26T12:25:24.736Z,47.78
2019-03-26T12:26:24.648Z,47.35
2019-03-26T12:27:24.697Z,46.31
2019-03-26T12:28:24.625Z,45.84
2019-03-26T12:29:24.614Z,48.36
2019-03-26T12:30:24.602Z,48.08
2019-03-26T12:31:24.646Z,49.02
2019-03-26T12:32:24.577Z,50.02
2019-03-26T12:33:24.566Z,48.80
2019-03-26T12:34:24.565Z,48.39
2019-03-26T12:35:24.546Z,47.89
2019-03-26T12:36:24.791Z,48.72
2019-03-26T12:37:24.523Z,48.31
2019-03-26T12:38:24.510Z,47.96
2019-03-26T12:39:24.504Z,45.53
2019-03-26T12:40:24.490Z,44.96
2019-03-26T12:41:24.477Z,46.94
2019-03-26T12:42:24.532Z,46.30
2019-03-26T12:43:24.459Z,46.64
2019-03-26T12:44:24.450Z,48.21
2019-03-26T12:45:24.431Z,48.22
2019-03-26T12:46:24.429Z,48.74
2019-03-26T12:47:24.414Z,50.79
2019-03-26T12:48:24.465Z,49.87
2019-03-26T12:49:24.384Z,50.82
2019-03-26T12:50:24.372Z,51.64
2019-03-26T12:51:24.361Z,52.04
2019-03-26T12:52:24.362Z,52.36